Archival Weather

Chicago O'Hare International

Chicago, Illinois (KORD)

Report from: Friday, May 26, 2023 3:51 PM CDT
Current time: Friday, April 19, 2024 4:07 AM CDT

Current weather – Weather history – Daily summaries
Weather forecast

Temperature20.6°C (69.1°F)
Dew point-1.1°C (30.0°F)
Winds 9 kts (4.6 m/s, 10.4 mph) Northeast (50°)
Visibility10 mi. (16.1 km)
Clouds Few clouds 25,000 ft. (7,620 m)
Altimeter30.30 in.Hg (1026 mB)
Relative humidity23 %
Density altitude315 ft. (96 m)
Sea-level pressure102.6 kPa (1026 mB, 30.30 in.Hg)
Remarks Automated weather observing station with precipitation discriminator
Pressure falling more quickly
Flight conditions Visual Meteorological Conditions
Raw dataKORD 262051Z 05009KT 10SM FEW250 21/M01 A3030 RMK AO2 SLP261 T02061011 58016
An error has occurred. This application may no longer respond until reloaded. Reload 🗙